Time;durP1;ratioP1;P1;durP2;ratioP2;P2;SDS_P1;SDS_P2;PMS_P1;PMS_P2;Temp;Humidity;BMP_temperature;BMP_pressure;BME280_temperature;BME280_humidity;BME280_pressure;Samples;Min_cycle;Max_cycle;Signal;HPM_P1;HPM_P2
2022/12/23 00:01:11;;;;;;;60.50;55.60;;;;;;;;;;10190521;28;20056;-70
2022/12/23 00:06:12;;;;;;;61.28;55.58;;;;;;;;;;10187076;28;20046;-69
2022/12/23 00:11:13;;;;;;;60.28;54.92;;;;;;;;;;10203687;28;20052;-69
2022/12/23 00:16:10;;;;;;;62.08;56.60;;;;;;;;;;10201069;28;20494;-72
2022/12/23 00:21:11;;;;;;;59.47;54.28;;;;;;;;;;10202865;28;20046;-71
2022/12/23 00:26:12;;;;;;;59.95;55.00;;;;;;;;;;10200438;28;20071;-71
2022/12/23 00:31:09;;;;;;;57.85;52.92;;;;;;;;;;10201741;28;20062;-72
2022/12/23 00:36:09;;;;;;;59.45;54.40;;;;;;;;;;10204296;28;20041;-72
2022/12/23 00:46:25;;;;;;;61.92;56.50;;;;;;;;;;10194234;28;20038;-71
2022/12/23 00:51:21;;;;;;;59.85;54.63;;;;;;;;;;10195974;28;20132;-72
2022/12/23 00:56:17;;;;;;;64.38;58.92;;;;;;;;;;10206001;28;20042;-72
2022/12/23 01:06:29;;;;;;;64.40;59.25;;;;;;;;;;10201225;28;20061;-71
2022/12/23 01:11:25;;;;;;;69.63;63.95;;;;;;;;;;10192157;28;20300;-71
2022/12/23 01:16:21;;;;;;;67.25;61.83;;;;;;;;;;10194114;28;20108;-73
2022/12/23 01:21:17;;;;;;;68.22;62.45;;;;;;;;;;10206737;28;20041;-73
2022/12/23 01:26:14;;;;;;;68.10;62.80;;;;;;;;;;10201242;28;20045;-73
2022/12/23 01:31:10;;;;;;;70.60;64.53;;;;;;;;;;10199310;28;20085;-70
2022/12/23 01:36:07;;;;;;;68.40;62.35;;;;;;;;;;10203465;28;20107;-70
2022/12/23 01:41:03;;;;;;;73.15;67.32;;;;;;;;;;10201778;28;20537;-70
2022/12/23 01:45:59;;;;;;;75.35;69.47;;;;;;;;;;10204579;28;20516;-71
2022/12/23 01:51:02;;;;;;;75.28;69.30;;;;;;;;;;10201133;28;20046;-72
2022/12/23 01:55:58;;;;;;;74.18;68.05;;;;;;;;;;10192324;28;20058;-71
2022/12/23 02:12:10;;;;;;;78.90;72.47;;;;;;;;;;10198576;28;20041;-71
2022/12/23 02:17:16;;;;;;;74.18;67.65;;;;;;;;;;10192560;28;20065;-71
2022/12/23 02:22:23;;;;;;;73.80;67.55;;;;;;;;;;10192572;28;20073;-72
2022/12/23 02:27:28;;;;;;;75.32;69.20;;;;;;;;;;10191863;28;20069;-70
2022/12/23 02:32:45;;;;;;;75.63;69.80;;;;;;;;;;10186802;28;20087;-72
2022/12/23 02:37:44;;;;;;;73.47;67.63;;;;;;;;;;10203119;28;20038;-72
2022/12/23 02:42:49;;;;;;;74.90;68.82;;;;;;;;;;10191612;28;20061;-72
2022/12/23 02:47:48;;;;;;;73.78;67.82;;;;;;;;;;10198011;28;20156;-72
2022/12/23 02:52:46;;;;;;;78.20;71.50;;;;;;;;;;10193896;28;20041;-72
2022/12/23 02:57:53;;;;;;;78.90;72.40;;;;;;;;;;10188419;28;20069;-72
2022/12/23 03:02:50;;;;;;;78.32;72.28;;;;;;;;;;10188366;28;20049;-72
2022/12/23 03:07:47;;;;;;;78.60;72.13;;;;;;;;;;10187393;28;20058;-72
2022/12/23 03:12:51;;;;;;;78.93;72.25;;;;;;;;;;10195976;28;20041;-72
2022/12/23 03:17:56;;;;;;;80.88;74.15;;;;;;;;;;10187785;28;20045;-73
2022/12/23 03:22:59;;;;;;;81.55;74.35;;;;;;;;;;10193887;28;20529;-70
2022/12/23 03:27:59;;;;;;;77.53;71.13;;;;;;;;;;10189683;28;20133;-71
2022/12/23 03:33:00;;;;;;;82.82;75.68;;;;;;;;;;10193446;28;20052;-72
2022/12/23 03:37:57;;;;;;;77.45;70.97;;;;;;;;;;10193368;28;20046;-72
2022/12/23 03:42:56;;;;;;;81.80;75.18;;;;;;;;;;10204885;28;20152;-71
2022/12/23 03:47:55;;;;;;;80.70;74.00;;;;;;;;;;10197134;28;20048;-72
2022/12/23 03:52:56;;;;;;;81.88;74.97;;;;;;;;;;10200193;28;20083;-72
2022/12/23 03:57:58;;;;;;;82.60;75.72;;;;;;;;;;10201471;28;20045;-72
2022/12/23 04:03:03;;;;;;;82.27;75.73;;;;;;;;;;10195857;28;20048;-72
2022/12/23 04:08:10;;;;;;;82.05;75.25;;;;;;;;;;10202170;28;20440;-73
2022/12/23 04:13:07;;;;;;;83.03;76.30;;;;;;;;;;10195883;28;20061;-72
2022/12/23 04:18:03;;;;;;;82.43;75.30;;;;;;;;;;10204412;28;20041;-72
2022/12/23 04:22:59;;;;;;;78.50;72.07;;;;;;;;;;10205501;28;20125;-72
2022/12/23 04:27:56;;;;;;;80.97;74.70;;;;;;;;;;10191672;28;20246;-71
2022/12/23 04:32:52;;;;;;;86.30;78.15;;;;;;;;;;10192791;28;20062;-71
2022/12/23 04:37:48;;;;;;;86.82;79.63;;;;;;;;;;10190983;28;20466;-72
2022/12/23 04:42:44;;;;;;;85.75;77.25;;;;;;;;;;10200568;28;20065;-72
2022/12/23 04:47:41;;;;;;;88.72;80.05;;;;;;;;;;10182605;28;20096;-70
2022/12/23 04:52:37;;;;;;;87.15;78.85;;;;;;;;;;10197141;28;20129;-71
2022/12/23 04:57:33;;;;;;;90.03;81.07;;;;;;;;;;10190582;28;20158;-71
2022/12/23 05:02:30;;;;;;;96.75;86.65;;;;;;;;;;10190708;28;20133;-70
2022/12/23 05:07:26;;;;;;;89.70;80.40;;;;;;;;;;10196233;28;20073;-70
2022/12/23 05:12:22;;;;;;;96.60;86.85;;;;;;;;;;10203656;28;20084;-72
2022/12/23 05:17:19;;;;;;;92.82;83.32;;;;;;;;;;10185215;28;20136;-72
2022/12/23 05:22:15;;;;;;;90.55;81.68;;;;;;;;;;10186560;28;20108;-72
2022/12/23 05:27:12;;;;;;;99.13;88.70;;;;;;;;;;10185934;28;20150;-73
2022/12/23 05:32:08;;;;;;;94.15;84.50;;;;;;;;;;10182777;28;20258;-71
2022/12/23 05:37:05;;;;;;;97.20;87.30;;;;;;;;;;10206179;28;20041;-72
2022/12/23 05:42:01;;;;;;;99.28;89.18;;;;;;;;;;10191067;28;20554;-72
2022/12/23 05:46:57;;;;;;;96.25;86.47;;;;;;;;;;10196249;28;20049;-72
2022/12/23 05:51:53;;;;;;;99.07;89.22;;;;;;;;;;10181700;28;20049;-72
2022/12/23 05:56:50;;;;;;;98.88;89.32;;;;;;;;;;10189533;28;20045;-72
2022/12/23 06:01:47;;;;;;;92.72;82.90;;;;;;;;;;10184164;28;20061;-73
2022/12/23 06:06:43;;;;;;;94.35;84.70;;;;;;;;;;10177147;28;20130;-73
2022/12/23 06:11:40;;;;;;;94.07;84.65;;;;;;;;;;10167687;28;20583;-71
2022/12/23 06:16:36;;;;;;;97.28;87.32;;;;;;;;;;10173414;28;20353;-70
2022/12/23 06:21:32;;;;;;;97.93;87.53;;;;;;;;;;10169786;28;20168;-72
2022/12/23 06:26:29;;;;;;;102.70;92.53;;;;;;;;;;10181680;28;20053;-72
2022/12/23 06:31:25;;;;;;;98.72;88.85;;;;;;;;;;10169569;28;20130;-73
2022/12/23 06:36:21;;;;;;;99.07;88.60;;;;;;;;;;10174886;28;20389;-73
2022/12/23 06:41:17;;;;;;;97.05;86.80;;;;;;;;;;10194504;28;20046;-73
2022/12/23 06:46:14;;;;;;;98.95;88.80;;;;;;;;;;10193115;28;20622;-71
2022/12/23 06:51:11;;;;;;;96.82;86.85;;;;;;;;;;10186796;28;20045;-71
2022/12/23 06:56:07;;;;;;;96.43;86.93;;;;;;;;;;10180146;28;20125;-71
2022/12/23 07:01:04;;;;;;;90.70;82.20;;;;;;;;;;10184082;28;20056;-71
2022/12/23 07:06:00;;;;;;;91.68;82.38;;;;;;;;;;10190023;28;20052;-71
2022/12/23 07:10:58;;;;;;;94.25;84.47;;;;;;;;;;10191075;28;20061;-71
2022/12/23 07:15:54;;;;;;;101.05;90.97;;;;;;;;;;10204719;28;20056;-71
2022/12/23 07:20:51;;;;;;;106.85;89.82;;;;;;;;;;10188804;28;20045;-71
2022/12/23 07:25:47;;;;;;;94.45;84.28;;;;;;;;;;10183447;28;20065;-71
2022/12/23 07:30:43;;;;;;;92.43;83.60;;;;;;;;;;10182604;28;20580;-71
2022/12/23 07:35:42;;;;;;;91.40;81.72;;;;;;;;;;10181598;28;20676;-71
2022/12/23 07:40:39;;;;;;;92.88;83.00;;;;;;;;;;10198597;28;20065;-71
2022/12/23 07:45:35;;;;;;;96.40;86.18;;;;;;;;;;10188853;28;20077;-71
2022/12/23 07:50:31;;;;;;;95.40;85.55;;;;;;;;;;10180694;28;20046;-71
2022/12/23 07:55:28;;;;;;;96.53;86.82;;;;;;;;;;10194700;28;20057;-71
2022/12/23 08:00:24;;;;;;;94.10;83.95;;;;;;;;;;10192218;28;20050;-70
2022/12/23 08:05:20;;;;;;;94.18;84.22;;;;;;;;;;10186436;28;20076;-71
2022/12/23 08:10:17;;;;;;;95.72;85.28;;;;;;;;;;10184409;28;20134;-71
2022/12/23 08:15:13;;;;;;;95.15;84.78;;;;;;;;;;10183631;28;20072;-71
2022/12/23 08:20:10;;;;;;;99.80;89.53;;;;;;;;;;10179207;28;20068;-71
2022/12/23 08:25:06;;;;;;;92.53;83.40;;;;;;;;;;10188666;28;20060;-71
2022/12/23 08:30:03;;;;;;;93.20;83.40;;;;;;;;;;10193100;28;20137;-70
2022/12/23 08:34:59;;;;;;;98.18;85.18;;;;;;;;;;10195958;28;20622;-71
2022/12/23 08:39:55;;;;;;;90.70;80.95;;;;;;;;;;10189809;28;20076;-70
2022/12/23 08:44:52;;;;;;;89.32;79.30;;;;;;;;;;10197159;28;20054;-71
2022/12/23 08:49:48;;;;;;;92.65;82.25;;;;;;;;;;10191643;28;20041;-71
2022/12/23 08:54:44;;;;;;;89.20;80.18;;;;;;;;;;10195210;28;20042;-71
2022/12/23 08:59:40;;;;;;;84.68;76.25;;;;;;;;;;10188017;28;20484;-71
2022/12/23 09:04:37;;;;;;;89.05;80.22;;;;;;;;;;10195971;28;20136;-72
2022/12/23 09:09:33;;;;;;;92.80;83.88;;;;;;;;;;10195664;28;20203;-70
2022/12/23 09:14:29;;;;;;;95.50;85.53;;;;;;;;;;10194492;28;20038;-72
2022/12/23 09:19:25;;;;;;;89.95;80.60;;;;;;;;;;10192118;28;20467;-71
2022/12/23 09:24:22;;;;;;;95.85;86.38;;;;;;;;;;10198749;28;20038;-71
2022/12/23 09:29:18;;;;;;;98.70;84.43;;;;;;;;;;10194201;28;20129;-70
2022/12/23 09:34:14;;;;;;;93.70;83.68;;;;;;;;;;10191381;28;20042;-71
2022/12/23 09:39:11;;;;;;;99.20;85.18;;;;;;;;;;10159826;28;20081;-70
2022/12/23 09:44:11;;;;;;;94.55;84.75;;;;;;;;;;10162337;28;20077;-70
2022/12/23 09:49:10;;;;;;;98.20;88.05;;;;;;;;;;10194544;28;20419;-70
2022/12/23 09:54:12;;;;;;;97.90;87.40;;;;;;;;;;10194796;28;20675;-70
2022/12/23 09:59:17;;;;;;;96.28;85.75;;;;;;;;;;10195323;28;20068;-71
2022/12/23 10:04:25;;;;;;;96.47;86.72;;;;;;;;;;10194260;28;20069;-71
2022/12/23 10:09:21;;;;;;;92.75;82.70;;;;;;;;;;10194950;28;20475;-70
2022/12/23 10:14:23;;;;;;;98.10;88.22;;;;;;;;;;10193878;28;20677;-71
2022/12/23 10:19:40;;;;;;;100.90;91.10;;;;;;;;;;10193691;28;20048;-70
2022/12/23 10:24:39;;;;;;;100.47;90.32;;;;;;;;;;10194640;28;20049;-71
2022/12/23 10:29:35;;;;;;;94.80;85.60;;;;;;;;;;10193360;28;20546;-70
2022/12/23 10:34:41;;;;;;;95.80;86.43;;;;;;;;;;10194186;28;20761;-70
2022/12/23 10:39:46;;;;;;;97.60;88.25;;;;;;;;;;10192749;28;20038;-70
2022/12/23 10:44:52;;;;;;;95.30;86.30;;;;;;;;;;10193902;28;20049;-71
2022/12/23 10:50:07;;;;;;;94.15;85.25;;;;;;;;;;10190386;28;20165;-70
2022/12/23 10:55:04;;;;;;;99.07;89.93;;;;;;;;;;10193143;28;20049;-71
2022/12/23 11:00:00;;;;;;;94.45;85.63;;;;;;;;;;10193449;28;20129;-70
2022/12/23 11:04:56;;;;;;;99.68;90.53;;;;;;;;;;10194214;28;20104;-70
2022/12/23 11:10:03;;;;;;;97.30;88.50;;;;;;;;;;10192225;28;20404;-73
2022/12/23 11:15:01;;;;;;;93.53;85.22;;;;;;;;;;10193823;28;20034;-70
2022/12/23 11:20:09;;;;;;;93.00;84.47;;;;;;;;;;10193061;28;20038;-70
2022/12/23 11:25:26;;;;;;;91.38;83.40;;;;;;;;;;10192144;28;20117;-70
2022/12/23 11:30:22;;;;;;;90.75;83.20;;;;;;;;;;10153587;28;20069;-70
2022/12/23 11:35:29;;;;;;;92.15;84.20;;;;;;;;;;10169125;28;20054;-71
2022/12/23 11:40:28;;;;;;;92.82;84.50;;;;;;;;;;10193343;28;20038;-71
2022/12/23 11:45:25;;;;;;;92.03;83.68;;;;;;;;;;10191917;28;20125;-70
2022/12/23 11:50:27;;;;;;;87.53;79.45;;;;;;;;;;10193419;28;20475;-70
2022/12/23 11:55:25;;;;;;;85.85;78.38;;;;;;;;;;10190986;28;20064;-70
2022/12/23 12:00:27;;;;;;;91.85;83.70;;;;;;;;;;10191992;28;20085;-71
2022/12/23 12:05:24;;;;;;;;;;;;;;;;;;10198574;28;20073;-70
2022/12/23 12:10:24;;;;;;;90.60;83.05;;;;;;;;;;10199063;28;19932;-70
2022/12/23 12:15:25;;;;;;;93.20;84.78;;;;;;;;;;10200105;28;20077;-72
2022/12/23 12:20:25;;;;;;;92.68;84.72;;;;;;;;;;10199122;28;20482;-72
2022/12/23 12:25:23;;;;;;;87.95;80.53;;;;;;;;;;10199329;28;20054;-71
2022/12/23 12:30:19;;;;;;;88.53;81.38;;;;;;;;;;10198813;28;20133;-70
2022/12/23 12:35:20;;;;;;;86.82;79.30;;;;;;;;;;10199307;28;20061;-71
2022/12/23 12:40:22;;;;;;;85.32;78.05;;;;;;;;;;10161415;28;20082;-71
2022/12/23 12:45:23;;;;;;;82.55;75.75;;;;;;;;;;10176288;28;20532;-70
2022/12/23 12:50:22;;;;;;;79.47;72.82;;;;;;;;;;10198507;28;20045;-70
2022/12/23 12:55:21;;;;;;;75.15;68.88;;;;;;;;;;10197121;28;20052;-70
2022/12/23 13:00:19;;;;;;;81.82;75.20;;;;;;;;;;10198920;28;20149;-72
2022/12/23 13:05:33;;;;;;;78.75;72.18;;;;;;;;;;10197348;28;20049;-70
2022/12/23 13:10:37;;;;;;;79.05;71.85;;;;;;;;;;10198253;28;20405;-70
2022/12/23 13:15:40;;;;;;;78.45;71.75;;;;;;;;;;10196285;28;20469;-70
2022/12/23 13:20:43;;;;;;;79.00;72.70;;;;;;;;;;10198129;28;20050;-70
2022/12/23 13:25:41;;;;;;;81.32;74.70;;;;;;;;;;10195864;28;20060;-71
2022/12/23 13:30:42;;;;;;;77.18;71.05;;;;;;;;;;10196309;28;20539;-71
2022/12/23 13:35:59;;;;;;;80.88;73.53;;;;;;;;;;10196761;28;20128;-70
2022/12/23 13:41:05;;;;;;;82.75;75.45;;;;;;;;;;10191589;28;20559;-70
2022/12/23 13:46:02;;;;;;;89.30;80.50;;;;;;;;;;10196803;28;20441;-71
2022/12/23 13:51:05;;;;;;;90.88;82.50;;;;;;;;;;10195270;28;20054;-70
2022/12/23 13:56:13;;;;;;;88.28;80.53;;;;;;;;;;10196088;28;20108;-71
2022/12/23 14:01:09;;;;;;;88.85;81.10;;;;;;;;;;10156176;28;20145;-71
2022/12/23 14:06:23;;;;;;;88.93;80.93;;;;;;;;;;10179492;28;20522;-71
2022/12/23 14:11:20;;;;;;;89.25;81.00;;;;;;;;;;10193684;28;20447;-71
2022/12/23 14:16:22;;;;;;;87.97;80.00;;;;;;;;;;10194937;28;20042;-71
2022/12/23 14:21:30;;;;;;;87.60;79.63;;;;;;;;;;10193913;28;20053;-71
2022/12/23 14:26:38;;;;;;;89.72;81.75;;;;;;;;;;10193326;28;20049;-71
2022/12/23 14:31:39;;;;;;;90.13;82.30;;;;;;;;;;10155107;28;20046;-71
2022/12/23 14:36:35;;;;;;;89.07;80.45;;;;;;;;;;10182005;28;20504;-70
2022/12/23 14:41:37;;;;;;;91.85;83.70;;;;;;;;;;10194966;28;20053;-71
2022/12/23 14:46:33;;;;;;;87.50;79.57;;;;;;;;;;10193064;28;20054;-71
2022/12/23 14:51:33;;;;;;;91.68;82.85;;;;;;;;;;10194664;28;20054;-71
2022/12/23 14:56:39;;;;;;;87.85;79.65;;;;;;;;;;10193155;28;20073;-70
2022/12/23 15:01:41;;;;;;;84.63;76.80;;;;;;;;;;10193483;28;20073;-71
2022/12/23 15:06:41;;;;;;;85.18;77.57;;;;;;;;;;10192396;28;20049;-71
2022/12/23 15:11:38;;;;;;;86.43;78.53;;;;;;;;;;10193844;28;20046;-70
2022/12/23 15:16:36;;;;;;;85.75;77.72;;;;;;;;;;10192509;28;20042;-70
2022/12/23 15:21:33;;;;;;;83.32;75.72;;;;;;;;;;10208698;28;20419;-71
2022/12/23 15:26:31;;;;;;;84.97;77.20;;;;;;;;;;10191886;28;20072;-71
2022/12/23 15:31:30;;;;;;;87.95;79.55;;;;;;;;;;10193343;28;20049;-71
2022/12/23 15:36:34;;;;;;;86.95;78.90;;;;;;;;;;10191659;28;20135;-71
2022/12/23 15:41:30;;;;;;;84.25;76.47;;;;;;;;;;10200685;28;20050;-71
2022/12/23 15:46:27;;;;;;;87.57;79.97;;;;;;;;;;10199922;28;20453;-71
2022/12/23 15:51:31;;;;;;;86.90;79.28;;;;;;;;;;10201068;28;20430;-71
2022/12/23 15:56:49;;;;;;;87.75;79.93;;;;;;;;;;10199330;28;20042;-71
2022/12/23 16:01:45;;;;;;;89.10;81.13;;;;;;;;;;10199437;28;20168;-71
2022/12/23 16:06:46;;;;;;;91.78;83.88;;;;;;;;;;10200607;28;20057;-71
2022/12/23 16:11:55;;;;;;;92.17;84.27;;;;;;;;;;10214379;28;20050;-71
2022/12/23 16:16:52;;;;;;;89.28;81.43;;;;;;;;;;10200234;28;20121;-71
2022/12/23 16:21:48;;;;;;;91.72;83.82;;;;;;;;;;10168021;28;20047;-70
2022/12/23 16:26:45;;;;;;;89.28;81.22;;;;;;;;;;10180676;28;20058;-71
2022/12/23 16:31:41;;;;;;;85.50;78.10;;;;;;;;;;10160764;28;20042;-71
2022/12/23 16:36:47;;;;;;;92.68;84.00;;;;;;;;;;10188031;28;20045;-71
2022/12/23 16:41:43;;;;;;;89.00;81.10;;;;;;;;;;10199558;28;20467;-71
2022/12/23 16:46:44;;;;;;;92.63;84.32;;;;;;;;;;10197572;28;20226;-70
2022/12/23 16:51:41;;;;;;;92.97;84.18;;;;;;;;;;10198020;28;20754;-71
2022/12/23 16:56:37;;;;;;;92.95;84.65;;;;;;;;;;10197794;28;20077;-71
2022/12/23 17:01:37;;;;;;;93.60;85.32;;;;;;;;;;10198946;28;20137;-70
2022/12/23 17:06:37;;;;;;;90.50;82.50;;;;;;;;;;10187439;28;20053;-71
2022/12/23 17:11:33;;;;;;;92.03;83.40;;;;;;;;;;10196799;28;20066;-71
2022/12/23 17:16:30;;;;;;;93.93;85.38;;;;;;;;;;10197683;28;20096;-71
2022/12/23 17:21:35;;;;;;;97.78;88.28;;;;;;;;;;10189508;28;20488;-71
2022/12/23 17:26:32;;;;;;;95.55;86.53;;;;;;;;;;10186108;28;20046;-71
2022/12/23 17:31:28;;;;;;;92.88;84.75;;;;;;;;;;10195979;28;20137;-71
2022/12/23 17:36:25;;;;;;;97.57;88.38;;;;;;;;;;10196677;28;20152;-71
2022/12/23 17:41:28;;;;;;;97.70;88.40;;;;;;;;;;10196373;28;20535;-71
2022/12/23 17:46:25;;;;;;;96.15;87.22;;;;;;;;;;10195525;28;20096;-70
2022/12/23 17:51:22;;;;;;;93.78;84.95;;;;;;;;;;10197004;28;20096;-71
2022/12/23 17:56:18;;;;;;;94.65;85.68;;;;;;;;;;10176937;28;20046;-71
2022/12/23 18:01:35;;;;;;;95.43;86.53;;;;;;;;;;10156317;28;20057;-71
2022/12/23 18:06:32;;;;;;;94.05;85.28;;;;;;;;;;10157309;28;20052;-71
2022/12/23 18:11:32;;;;;;;93.65;84.00;;;;;;;;;;10155647;28;20587;-71
2022/12/23 18:16:28;;;;;;;94.65;85.68;;;;;;;;;;10193789;28;20042;-71
2022/12/23 18:21:26;;;;;;;97.32;88.00;;;;;;;;;;10194471;28;20133;-71
2022/12/23 18:26:22;;;;;;;96.20;86.75;;;;;;;;;;10195568;28;20060;-71
2022/12/23 18:31:20;;;;;;;96.03;86.25;;;;;;;;;;10194185;28;20049;-71
2022/12/23 18:36:16;;;;;;;92.32;83.55;;;;;;;;;;10194240;28;20045;-70
2022/12/23 18:41:13;;;;;;;96.65;86.65;;;;;;;;;;10193895;28;20042;-71
2022/12/23 18:46:09;;;;;;;93.30;83.13;;;;;;;;;;10193701;28;20461;-71
2022/12/23 18:51:05;;;;;;;93.97;83.53;;;;;;;;;;10191866;28;20103;-70
2022/12/23 18:56:02;;;;;;;101.35;86.03;;;;;;;;;;10183538;28;20141;-70
2022/12/23 19:00:58;;;;;;;97.93;86.93;;;;;;;;;;10154107;28;20069;-71
2022/12/23 19:05:55;;;;;;;97.00;86.72;;;;;;;;;;10185598;28;20081;-71
2022/12/23 19:10:52;;;;;;;92.60;83.00;;;;;;;;;;10193487;28;20042;-71
2022/12/23 19:15:48;;;;;;;98.47;88.07;;;;;;;;;;10191709;28;20069;-71
2022/12/23 19:20:45;;;;;;;94.68;84.63;;;;;;;;;;10192955;28;20050;-70
2022/12/23 19:25:42;;;;;;;98.70;88.32;;;;;;;;;;10192955;28;20046;-71
2022/12/23 19:30:49;;;;;;;97.72;88.10;;;;;;;;;;10192243;28;20041;-71
2022/12/23 19:35:46;;;;;;;98.22;88.47;;;;;;;;;;10193032;28;20038;-72
2022/12/23 19:40:42;;;;;;;97.55;87.68;;;;;;;;;;10192595;28;20052;-71
2022/12/23 19:45:38;;;;;;;95.95;86.25;;;;;;;;;;10193099;28;20053;-70
2022/12/23 19:50:34;;;;;;;96.68;87.15;;;;;;;;;;10192067;28;20050;-71
2022/12/23 19:55:31;;;;;;;96.10;86.50;;;;;;;;;;10192306;28;20053;-71
2022/12/23 20:00:27;;;;;;;97.75;87.53;;;;;;;;;;10191181;28;20472;-71
2022/12/23 20:05:23;;;;;;;92.97;84.18;;;;;;;;;;10190470;28;20551;-71
2022/12/23 20:10:19;;;;;;;94.55;85.72;;;;;;;;;;10192332;28;20046;-71
2022/12/23 20:15:16;;;;;;;91.75;82.60;;;;;;;;;;10190893;28;20046;-70
2022/12/23 20:20:12;;;;;;;88.55;80.20;;;;;;;;;;10192188;28;20132;-71
2022/12/23 20:25:08;;;;;;;90.03;81.05;;;;;;;;;;10194367;28;20052;-71
2022/12/23 20:30:05;;;;;;;91.15;82.03;;;;;;;;;;10199476;28;20073;-70
2022/12/23 20:35:02;;;;;;;93.90;84.13;;;;;;;;;;10183210;28;20507;-70
2022/12/23 20:39:58;;;;;;;93.88;84.68;;;;;;;;;;10159358;28;20408;-71
2022/12/23 20:44:54;;;;;;;88.88;80.95;;;;;;;;;;10180912;28;20041;-71
2022/12/23 20:49:50;;;;;;;90.30;81.72;;;;;;;;;;10198546;28;20046;-72
2022/12/23 20:54:47;;;;;;;88.30;78.95;;;;;;;;;;10198065;28;20046;-71
2022/12/23 20:59:43;;;;;;;80.18;73.10;;;;;;;;;;10197195;28;20045;-71
2022/12/23 21:04:39;;;;;;;91.25;82.78;;;;;;;;;;10198170;28;20070;-71
2022/12/23 21:09:36;;;;;;;89.00;80.55;;;;;;;;;;10196402;28;20077;-70
2022/12/23 21:14:32;;;;;;;87.22;78.47;;;;;;;;;;10197731;28;20081;-70
2022/12/23 21:19:28;;;;;;;89.00;80.82;;;;;;;;;;10194915;28;20045;-70
2022/12/23 21:24:25;;;;;;;88.15;80.72;;;;;;;;;;10183661;28;20042;-70
2022/12/23 21:29:21;;;;;;;91.82;83.57;;;;;;;;;;10194640;28;20052;-71
2022/12/23 21:34:17;;;;;;;88.82;81.25;;;;;;;;;;10197028;28;20046;-70
2022/12/23 21:39:14;;;;;;;88.03;80.00;;;;;;;;;;10194927;28;20050;-72
2022/12/23 21:44:13;;;;;;;90.35;82.35;;;;;;;;;;10196799;28;20046;-73
2022/12/23 21:49:09;;;;;;;93.00;84.60;;;;;;;;;;10195282;28;20078;-72
2022/12/23 21:54:05;;;;;;;88.60;80.82;;;;;;;;;;10196294;28;20066;-71
2022/12/23 21:59:06;;;;;;;93.10;85.10;;;;;;;;;;10194772;28;20101;-72
2022/12/23 22:04:02;;;;;;;90.68;83.20;;;;;;;;;;10194788;28;20037;-72
2022/12/23 22:08:58;;;;;;;93.70;85.53;;;;;;;;;;10195576;28;20061;-72
2022/12/23 22:13:55;;;;;;;89.03;81.25;;;;;;;;;;10185585;28;20129;-72
2022/12/23 22:18:52;;;;;;;94.82;86.60;;;;;;;;;;10195151;28;20041;-72
2022/12/23 22:23:49;;;;;;;95.05;86.55;;;;;;;;;;10194544;28;20070;-71
2022/12/23 22:28:45;;;;;;;97.07;87.55;;;;;;;;;;10194965;28;20141;-73
2022/12/23 22:33:41;;;;;;;93.57;85.68;;;;;;;;;;10194018;28;20054;-72
2022/12/23 22:38:38;;;;;;;91.35;83.53;;;;;;;;;;10194810;28;20507;-71
2022/12/23 22:43:34;;;;;;;90.00;81.80;;;;;;;;;;10193322;28;20148;-72
2022/12/23 22:48:31;;;;;;;89.40;82.07;;;;;;;;;;10193472;28;20141;-72
2022/12/23 22:53:27;;;;;;;88.57;81.28;;;;;;;;;;10193539;28;20069;-71
2022/12/23 22:58:26;;;;;;;80.90;74.00;;;;;;;;;;10193036;28;20071;-72
2022/12/23 23:03:22;;;;;;;86.45;79.35;;;;;;;;;;10194726;28;20081;-71
2022/12/23 23:08:18;;;;;;;86.07;78.85;;;;;;;;;;10192641;28;20077;-71
2022/12/23 23:13:15;;;;;;;83.75;77.00;;;;;;;;;;10192371;28;20416;-71
2022/12/23 23:18:11;;;;;;;84.57;77.75;;;;;;;;;;10193655;28;20053;-72
2022/12/23 23:23:07;;;;;;;82.75;76.28;;;;;;;;;;10192562;28;20144;-71
2022/12/23 23:28:04;;;;;;;84.53;77.75;;;;;;;;;;10193499;28;20061;-71
2022/12/23 23:33:00;;;;;;;83.57;76.85;;;;;;;;;;10192199;28;20046;-71
2022/12/23 23:37:56;;;;;;;82.88;76.65;;;;;;;;;;10193171;28;20077;-72
2022/12/23 23:42:53;;;;;;;84.53;77.97;;;;;;;;;;10192362;28;20503;-72
2022/12/23 23:47:49;;;;;;;87.55;79.28;;;;;;;;;;10193101;28;20137;-71
2022/12/23 23:52:45;;;;;;;86.70;79.60;;;;;;;;;;10191846;28;20079;-71
2022/12/23 23:57:42;;;;;;;81.78;75.10;;;;;;;;;;10191710;28;20419;-72
